createdAt,value
2018-04-13T00:00:18.126Z,11.32
2018-04-13T00:01:18.144Z,11.38
2018-04-13T00:02:18.080Z,11.29
2018-04-13T00:03:18.157Z,11.19
2018-04-13T00:04:18.039Z,11.19
2018-04-13T00:05:18.069Z,11.19
2018-04-13T00:06:17.991Z,11.14
2018-04-13T00:07:17.982Z,11.14
2018-04-13T00:08:17.945Z,11.13
2018-04-13T00:09:17.995Z,11.07
2018-04-13T00:10:17.898Z,11.13
2018-04-13T00:11:17.909Z,11.03
2018-04-13T00:12:17.852Z,11.13
2018-04-13T00:13:17.920Z,11.02
2018-04-13T00:14:17.804Z,11.03
2018-04-13T00:15:17.833Z,11.07
2018-04-13T00:16:17.760Z,11.03
2018-04-13T00:17:17.848Z,11.07
2018-04-13T00:18:17.713Z,11.13
2018-04-13T00:19:17.761Z,11.14
2018-04-13T00:20:17.666Z,11.13
2018-04-13T00:21:17.672Z,11.09
2018-04-13T00:22:17.621Z,11.13
2018-04-13T00:23:17.685Z,11.09
2018-04-13T00:24:17.579Z,11.02
2018-04-13T00:25:17.605Z,10.99
2018-04-13T00:26:17.530Z,10.92
2018-04-13T00:27:17.612Z,10.95
2018-04-13T00:28:17.483Z,10.99
2018-04-13T00:29:17.523Z,11.02
2018-04-13T00:30:17.435Z,10.89
2018-04-13T00:31:17.433Z,10.88
2018-04-13T00:32:17.390Z,10.89
2018-04-13T00:33:17.452Z,10.91
2018-04-13T00:34:17.345Z,10.89
2018-04-13T00:35:17.360Z,10.86
2018-04-13T00:36:17.295Z,10.84
2018-04-13T00:37:17.379Z,10.77
2018-04-13T00:38:17.259Z,10.76
2018-04-13T00:39:17.285Z,10.71
2018-04-13T00:40:17.207Z,10.56
2018-04-13T00:41:17.200Z,10.60
2018-04-13T00:42:17.158Z,10.51
2018-04-13T00:43:17.211Z,10.43
2018-04-13T00:44:17.111Z,10.43
2018-04-13T00:45:17.122Z,10.44
2018-04-13T00:46:17.061Z,10.58
2018-04-13T00:47:17.136Z,10.37
2018-04-13T00:48:17.020Z,10.46
2018-04-13T00:49:17.051Z,10.42
2018-04-13T00:50:16.968Z,10.40
2018-04-13T00:51:16.960Z,10.44
2018-04-13T00:52:16.922Z,10.39
2018-04-13T00:53:16.975Z,10.32
2018-04-13T00:54:16.876Z,10.42
2018-04-13T00:55:16.889Z,10.44
2018-04-13T00:56:16.830Z,10.43
2018-04-13T00:57:16.898Z,10.43
2018-04-13T00:58:16.783Z,10.42
2018-04-13T00:59:16.812Z,10.43
2018-04-13T01:00:16.732Z,10.34
2018-04-13T01:01:16.722Z,10.39
2018-04-13T01:02:16.688Z,10.37
2018-04-13T01:03:16.736Z,10.37
2018-04-13T01:04:16.643Z,10.33
2018-04-13T01:05:16.650Z,10.33
2018-04-13T01:06:16.591Z,10.28
2018-04-13T01:07:16.661Z,10.30
2018-04-13T01:08:16.544Z,10.21
2018-04-13T01:09:16.575Z,10.19
2018-04-13T01:10:16.499Z,10.24
2018-04-13T01:11:16.587Z,10.19
2018-04-13T01:12:16.453Z,10.21
2018-04-13T01:13:16.505Z,10.10
2018-04-13T01:14:16.400Z,10.18
2018-04-13T01:15:16.520Z,10.22
2018-04-13T01:16:16.354Z,10.26
2018-04-13T01:17:16.424Z,10.24
2018-04-13T01:18:16.307Z,10.21
2018-04-13T01:19:16.341Z,10.18
2018-04-13T01:20:16.261Z,10.14
2018-04-13T01:21:16.349Z,10.10
2018-04-13T01:22:16.212Z,10.10
2018-04-13T01:23:16.272Z,9.99
2018-04-13T01:24:16.168Z,10.06
2018-04-13T01:25:16.179Z,10.06
2018-04-13T01:26:16.117Z,10.17
2018-04-13T01:27:16.195Z,10.09
2018-04-13T01:28:16.069Z,10.07
2018-04-13T01:29:16.100Z,10.00
2018-04-13T01:30:17.828Z,10.01
2018-04-13T01:31:16.015Z,10.09
2018-04-13T01:32:15.974Z,10.00
2018-04-13T01:33:16.031Z,10.01
2018-04-13T01:34:15.925Z,9.93
2018-04-13T01:35:15.940Z,9.97
2018-04-13T01:36:15.881Z,9.86
2018-04-13T01:37:15.953Z,9.86
2018-04-13T01:38:15.831Z,9.88
2018-04-13T01:39:16.071Z,9.93
2018-04-13T01:40:15.782Z,9.88
2018-04-13T01:41:15.776Z,9.91
2018-04-13T01:42:15.736Z,9.89
2018-04-13T01:43:15.793Z,9.89
2018-04-13T01:44:15.691Z,9.89
2018-04-13T01:45:15.705Z,9.86
2018-04-13T01:46:15.641Z,9.91
2018-04-13T01:47:15.715Z,10.07
2018-04-13T01:48:15.592Z,10.03
2018-04-13T01:49:15.630Z,9.97
2018-04-13T01:50:15.542Z,9.99
2018-04-13T01:51:15.542Z,10.07
2018-04-13T01:52:15.496Z,10.01
2018-04-13T01:53:15.551Z,9.94
2018-04-13T01:54:15.447Z,9.88
2018-04-13T01:55:15.463Z,9.93
2018-04-13T01:56:15.402Z,9.88
2018-04-13T01:57:15.479Z,9.83
2018-04-13T01:58:15.348Z,9.82
2018-04-13T01:59:15.390Z,9.76
2018-04-13T02:00:15.300Z,9.79
2018-04-13T02:01:15.298Z,9.75
2018-04-13T02:02:15.254Z,9.86
2018-04-13T02:03:15.314Z,9.82
2018-04-13T02:04:15.205Z,9.89
2018-04-13T02:05:15.228Z,9.93
2018-04-13T02:06:15.158Z,10.07
2018-04-13T02:07:15.237Z,10.06
2018-04-13T02:08:15.109Z,10.01
2018-04-13T02:09:15.151Z,9.97
2018-04-13T02:10:15.057Z,9.85
2018-04-13T02:11:15.061Z,9.94
2018-04-13T02:12:15.012Z,9.94
2018-04-13T02:13:15.075Z,9.86
2018-04-13T02:14:14.963Z,9.91
2018-04-13T02:15:14.986Z,9.82
2018-04-13T02:16:14.917Z,9.88
2018-04-13T02:17:14.899Z,9.94
2018-04-13T02:18:14.865Z,10.01
2018-04-13T02:19:14.914Z,9.86
2018-04-13T02:20:14.818Z,9.88
2018-04-13T02:21:14.827Z,9.85
2018-04-13T02:22:14.768Z,9.93
2018-04-13T02:23:14.840Z,9.94
2018-04-13T02:24:14.720Z,9.81
2018-04-13T02:25:14.748Z,9.85
2018-04-13T02:26:14.668Z,9.81
2018-04-13T02:27:14.662Z,9.81
2018-04-13T02:28:14.625Z,9.75
2018-04-13T02:29:14.675Z,9.76
2018-04-13T02:30:14.574Z,9.73
2018-04-13T02:31:14.590Z,9.71
2018-04-13T02:32:14.525Z,9.76
2018-04-13T02:33:14.603Z,9.75
2018-04-13T02:34:14.495Z,9.71
2018-04-13T02:35:14.513Z,9.64
2018-04-13T02:36:14.428Z,9.64
2018-04-13T02:37:14.426Z,9.71
2018-04-13T02:38:14.381Z,9.66
2018-04-13T02:39:14.440Z,9.63
2018-04-13T02:40:14.334Z,9.68
2018-04-13T02:41:14.351Z,9.70
2018-04-13T02:42:14.282Z,9.68
2018-04-13T02:43:14.365Z,9.78
2018-04-13T02:44:14.233Z,9.75
2018-04-13T02:45:14.277Z,9.64
2018-04-13T02:46:14.182Z,9.66
2018-04-13T02:47:14.189Z,9.60
2018-04-13T02:48:14.138Z,9.64
2018-04-13T02:49:14.203Z,9.63
2018-04-13T02:50:14.087Z,9.64
2018-04-13T02:51:14.116Z,9.58
2018-04-13T02:52:14.038Z,9.50
2018-04-13T02:53:14.024Z,9.61
2018-04-13T02:54:13.991Z,9.60
2018-04-13T02:55:14.045Z,9.53
2018-04-13T02:56:13.939Z,9.48
2018-04-13T02:57:13.953Z,9.49
2018-04-13T02:58:13.890Z,9.53
2018-04-13T02:59:13.966Z,9.45
2018-04-13T03:00:13.845Z,9.39
2018-04-13T03:01:13.875Z,9.42
2018-04-13T03:02:13.794Z,9.35
2018-04-13T03:03:13.787Z,9.30
2018-04-13T03:04:13.743Z,9.28
2018-04-13T03:05:13.800Z,9.27
2018-04-13T03:06:13.694Z,9.24
2018-04-13T03:07:13.712Z,9.28
2018-04-13T03:08:13.645Z,9.16
2018-04-13T03:09:13.729Z,9.16
2018-04-13T03:10:13.593Z,9.18
2018-04-13T03:11:13.639Z,9.18
2018-04-13T03:12:13.543Z,9.16
2018-04-13T03:13:13.549Z,9.09
2018-04-13T03:14:13.498Z,9.05
2018-04-13T03:15:13.565Z,9.06
2018-04-13T03:16:13.452Z,9.04
2018-04-13T03:17:13.477Z,9.05
2018-04-13T03:18:13.399Z,8.97
2018-04-13T03:19:13.386Z,9.09
2018-04-13T03:20:13.352Z,9.09
2018-04-13T03:21:13.403Z,9.06
2018-04-13T03:22:13.299Z,8.99
2018-04-13T03:23:13.315Z,9.01
2018-04-13T03:24:13.253Z,9.05
2018-04-13T03:25:13.334Z,9.09
2018-04-13T03:26:13.205Z,9.06
2018-04-13T03:27:13.237Z,8.99
2018-04-13T03:28:13.152Z,9.02
2018-04-13T03:29:13.144Z,8.97
2018-04-13T03:30:13.106Z,8.97
2018-04-13T03:31:13.169Z,8.96
2018-04-13T03:32:13.053Z,8.94
2018-04-13T03:33:13.076Z,8.96
2018-04-13T03:34:13.001Z,8.99
2018-04-13T03:35:13.093Z,8.96
2018-04-13T03:36:15.234Z,8.97
2018-04-13T03:37:13.009Z,8.97
2018-04-13T03:38:12.904Z,8.96
2018-04-13T03:39:12.911Z,8.97
2018-04-13T03:40:12.854Z,8.96
2018-04-13T03:41:12.931Z,8.94
2018-04-13T03:42:12.806Z,8.97
2018-04-13T03:43:12.843Z,8.97
2018-04-13T03:44:12.760Z,9.01
2018-04-13T03:45:12.753Z,8.97
2018-04-13T03:46:12.705Z,9.01
2018-04-13T03:47:12.841Z,8.88
2018-04-13T03:48:12.655Z,8.91
2018-04-13T03:49:12.679Z,8.84
2018-04-13T03:50:12.609Z,8.90
2018-04-13T03:51:12.693Z,8.87
2018-04-13T03:52:12.556Z,8.87
2018-04-13T03:53:12.608Z,8.88
2018-04-13T03:54:12.509Z,8.90
2018-04-13T03:55:12.515Z,8.81
2018-04-13T03:56:12.460Z,8.87
2018-04-13T03:57:12.530Z,8.86
2018-04-13T03:58:12.406Z,8.86
2018-04-13T03:59:12.446Z,8.86
2018-04-13T04:00:12.358Z,8.86
2018-04-13T04:01:12.352Z,8.79
2018-04-13T04:02:12.340Z,8.81
2018-04-13T04:03:12.366Z,8.78
2018-04-13T04:04:12.255Z,8.78
2018-04-13T04:05:12.283Z,8.83
2018-04-13T04:06:12.207Z,8.78
2018-04-13T04:07:12.293Z,8.79
2018-04-13T04:08:12.156Z,8.69
2018-04-13T04:09:12.203Z,8.68
2018-04-13T04:10:12.106Z,8.72
2018-04-13T04:11:12.113Z,8.68
2018-04-13T04:12:12.055Z,8.62
2018-04-13T04:13:12.127Z,8.63
2018-04-13T04:14:12.009Z,8.55
2018-04-13T04:15:12.040Z,8.63
2018-04-13T04:16:11.950Z,8.62
2018-04-13T04:17:11.951Z,8.63
2018-04-13T04:18:11.914Z,8.65
2018-04-13T04:19:11.964Z,8.62
2018-04-13T04:20:11.850Z,8.62
2018-04-13T04:21:11.876Z,8.55
2018-04-13T04:22:11.796Z,8.55
2018-04-13T04:23:11.790Z,8.50
2018-04-13T04:24:11.796Z,8.58
2018-04-13T04:25:11.800Z,8.48
2018-04-13T04:26:11.698Z,8.57
2018-04-13T04:27:11.714Z,8.58
2018-04-13T04:28:11.646Z,8.53
2018-04-13T04:29:11.728Z,8.57
2018-04-13T04:30:11.598Z,8.50
2018-04-13T04:31:11.641Z,8.51
2018-04-13T04:32:11.543Z,8.50
2018-04-13T04:33:11.550Z,8.40
2018-04-13T04:34:11.495Z,8.48
2018-04-13T04:35:11.473Z,8.47
2018-04-13T04:36:11.468Z,8.45
2018-04-13T04:37:11.416Z,8.47
2018-04-13T04:38:11.484Z,8.44
2018-04-13T04:39:11.366Z,8.50
2018-04-13T04:40:11.346Z,8.42
2018-04-13T04:41:11.315Z,8.42
2018-04-13T04:42:11.306Z,8.40
2018-04-13T04:43:11.264Z,8.45
2018-04-13T04:44:11.314Z,8.42
2018-04-13T04:45:11.214Z,8.48
2018-04-13T04:46:11.232Z,8.47
2018-04-13T04:47:11.161Z,8.48
2018-04-13T04:48:11.247Z,8.42
2018-04-13T04:49:11.115Z,8.48
2018-04-13T04:50:11.157Z,8.42
2018-04-13T04:51:11.065Z,8.50
2018-04-13T04:52:11.069Z,8.51
2018-04-13T04:53:11.010Z,8.44
2018-04-13T04:54:11.086Z,8.39
2018-04-13T04:55:10.962Z,8.48
2018-04-13T04:56:11.006Z,8.40
2018-04-13T04:57:10.912Z,8.44
2018-04-13T04:58:10.909Z,8.45
2018-04-13T04:59:10.859Z,8.42
2018-04-13T05:00:10.921Z,8.53
2018-04-13T05:01:10.809Z,8.51
2018-04-13T05:02:10.833Z,8.51
2018-04-13T05:03:10.757Z,8.55
2018-04-13T05:04:10.746Z,8.48
2018-04-13T05:05:10.709Z,8.55
2018-04-13T05:06:10.764Z,8.55
2018-04-13T05:07:10.658Z,8.60
2018-04-13T05:08:10.672Z,8.60
2018-04-13T05:09:10.606Z,8.57
2018-04-13T05:10:10.685Z,8.71
2018-04-13T05:11:10.555Z,8.71
2018-04-13T05:12:10.598Z,8.65
2018-04-13T05:13:10.507Z,8.69
2018-04-13T05:14:10.508Z,8.63
2018-04-13T05:15:10.455Z,8.69
2018-04-13T05:16:10.525Z,8.55
2018-04-13T05:17:10.409Z,8.69
2018-04-13T05:18:10.434Z,8.68
2018-04-13T05:19:10.355Z,8.69
2018-04-13T05:20:10.345Z,8.71
2018-04-13T05:21:10.305Z,8.75
2018-04-13T05:22:10.379Z,8.73
2018-04-13T05:23:10.253Z,8.66
2018-04-13T05:24:10.292Z,8.68
2018-04-13T05:25:10.201Z,8.69
2018-04-13T05:26:10.285Z,8.76
2018-04-13T05:27:10.149Z,8.71
2018-04-13T05:28:10.199Z,8.76
2018-04-13T05:29:10.102Z,8.78
2018-04-13T05:30:10.111Z,8.81
2018-04-13T05:31:10.050Z,8.68
2018-04-13T05:32:10.129Z,8.81
2018-04-13T05:33:09.999Z,8.79
2018-04-13T05:34:10.037Z,8.81
2018-04-13T05:35:09.960Z,8.76
2018-04-13T05:36:09.951Z,8.73
2018-04-13T05:37:09.904Z,8.79
2018-04-13T05:38:09.963Z,8.91
2018-04-13T05:39:09.850Z,8.79
2018-04-13T05:40:09.873Z,8.84
2018-04-13T05:41:09.801Z,8.91
2018-04-13T05:42:09.890Z,8.90
2018-04-13T05:43:09.748Z,8.86
2018-04-13T05:44:09.802Z,8.86
2018-04-13T05:45:09.696Z,8.93
2018-04-13T05:46:09.746Z,8.91
2018-04-13T05:47:09.650Z,8.90
2018-04-13T05:48:09.726Z,8.88
2018-04-13T05:49:09.609Z,8.90
2018-04-13T05:50:09.640Z,8.93
2018-04-13T05:51:09.547Z,8.94
2018-04-13T05:52:09.550Z,8.99
2018-04-13T05:53:09.504Z,8.97
2018-04-13T05:54:09.568Z,8.97
2018-04-13T05:55:09.451Z,8.99
2018-04-13T05:56:09.476Z,9.09
2018-04-13T05:57:09.401Z,9.12
2018-04-13T05:58:09.390Z,9.09
2018-04-13T05:59:09.347Z,9.13
2018-04-13T06:00:09.439Z,9.15
2018-04-13T06:01:09.296Z,9.18
2018-04-13T06:02:09.316Z,9.15
2018-04-13T06:03:09.245Z,9.30
2018-04-13T06:04:09.336Z,9.31
2018-04-13T06:05:09.192Z,9.28
2018-04-13T06:06:09.250Z,9.25
2018-04-13T06:07:09.143Z,9.42
2018-04-13T06:08:09.150Z,9.34
2018-04-13T06:09:09.093Z,9.43
2018-04-13T06:10:09.157Z,9.39
2018-04-13T06:11:09.042Z,9.53
2018-04-13T06:12:11.023Z,9.50
2018-04-13T06:13:08.993Z,9.53
2018-04-13T06:14:08.988Z,9.61
2018-04-13T06:15:08.938Z,9.57
2018-04-13T06:16:09.000Z,9.52
2018-04-13T06:17:08.891Z,9.64
2018-04-13T06:18:08.912Z,9.61
2018-04-13T06:19:08.844Z,9.64
2018-04-13T06:20:08.925Z,9.73
2018-04-13T06:21:08.792Z,9.81
2018-04-13T06:22:08.836Z,9.79
2018-04-13T06:23:08.741Z,9.73
2018-04-13T06:24:08.749Z,9.88
2018-04-13T06:25:08.697Z,9.83
2018-04-13T06:26:08.763Z,9.91
2018-04-13T06:27:08.647Z,9.94
2018-04-13T06:28:08.676Z,10.03
2018-04-13T06:29:08.591Z,10.00
2018-04-13T06:30:08.698Z,10.03
2018-04-13T06:31:08.543Z,10.07
2018-04-13T06:32:08.600Z,9.99
2018-04-13T06:33:08.542Z,10.01
2018-04-13T06:34:08.510Z,9.94
2018-04-13T06:35:08.443Z,10.10
2018-04-13T06:36:08.525Z,10.04
2018-04-13T06:37:08.402Z,10.06
2018-04-13T06:38:08.435Z,10.17
2018-04-13T06:39:08.346Z,10.25
2018-04-13T06:40:08.350Z,10.32
2018-04-13T06:41:08.296Z,10.30
2018-04-13T06:42:08.363Z,10.51
2018-04-13T06:43:08.247Z,10.36
2018-04-13T06:44:08.272Z,10.51
2018-04-13T06:45:08.195Z,10.44
2018-04-13T06:46:08.287Z,10.39
2018-04-13T06:47:08.148Z,10.55
2018-04-13T06:48:08.200Z,10.56
2018-04-13T06:49:08.099Z,10.53
2018-04-13T06:50:08.120Z,10.58
2018-04-13T06:51:08.053Z,10.56
2018-04-13T06:52:08.124Z,10.63
2018-04-13T06:53:08.002Z,10.70
2018-04-13T06:54:08.036Z,10.71
2018-04-13T06:55:07.953Z,10.76
2018-04-13T06:56:07.956Z,10.70
2018-04-13T06:57:07.908Z,10.84
2018-04-13T06:58:07.891Z,10.86
2018-04-13T06:59:07.861Z,10.92
2018-04-13T07:00:07.873Z,10.88
2018-04-13T07:01:07.807Z,10.92
2018-04-13T07:02:07.888Z,10.84
2018-04-13T07:03:07.760Z,10.94
2018-04-13T07:04:07.799Z,10.95
2018-04-13T07:05:07.710Z,10.94
2018-04-13T07:06:07.711Z,10.96
2018-04-13T07:07:07.663Z,11.09
2018-04-13T07:08:07.725Z,11.03
2018-04-13T07:09:07.619Z,11.07
2018-04-13T07:10:07.640Z,11.10
2018-04-13T07:11:07.568Z,11.10
2018-04-13T07:12:07.650Z,11.13
2018-04-13T07:13:07.522Z,11.21
2018-04-13T07:14:07.565Z,11.24
2018-04-13T07:15:07.472Z,11.25
2018-04-13T07:16:07.476Z,11.27
2018-04-13T07:17:07.424Z,11.28
2018-04-13T07:18:07.488Z,11.27
2018-04-13T07:19:07.380Z,11.35
2018-04-13T07:20:07.403Z,11.31
2018-04-13T07:21:07.331Z,11.38
2018-04-13T07:22:07.417Z,11.43
2018-04-13T07:23:07.283Z,11.43
2018-04-13T07:24:07.335Z,11.41
2018-04-13T07:25:07.232Z,11.56
2018-04-13T07:26:07.237Z,11.61
2018-04-13T07:27:07.185Z,11.64
2018-04-13T07:28:07.165Z,11.70
2018-04-13T07:29:07.155Z,11.67
2018-04-13T07:30:07.138Z,11.71
2018-04-13T07:31:07.173Z,11.77
2018-04-13T07:32:07.073Z,11.83
2018-04-13T07:33:07.531Z,11.86
2018-04-13T07:34:07.088Z,11.97
2018-04-13T07:35:07.095Z,12.02
2018-04-13T07:36:07.449Z,12.06
2018-04-13T07:37:07.007Z,12.16
2018-04-13T07:38:06.925Z,12.16
2018-04-13T07:39:06.917Z,12.20
2018-04-13T07:40:06.891Z,12.30
2018-04-13T07:41:06.933Z,12.30
2018-04-13T07:42:06.835Z,12.39
2018-04-13T07:43:06.845Z,12.42
2018-04-13T07:44:06.790Z,12.48
2018-04-13T07:45:06.858Z,12.56
2018-04-13T07:46:06.743Z,12.60
2018-04-13T07:47:07.015Z,12.66
2018-04-13T07:48:06.700Z,12.74
2018-04-13T07:49:06.784Z,12.64
2018-04-13T07:50:07.137Z,12.67
2018-04-13T07:51:06.702Z,12.70
2018-04-13T07:52:06.804Z,12.78
2018-04-13T07:53:06.607Z,12.88
2018-04-13T07:54:06.558Z,12.99
2018-04-13T07:55:06.620Z,12.99
2018-04-13T07:56:06.511Z,13.02
2018-04-13T07:57:06.532Z,13.11
2018-04-13T07:58:06.468Z,13.14
2018-04-13T07:59:06.548Z,13.07
2018-04-13T08:00:06.421Z,13.30
2018-04-13T08:01:06.459Z,13.30
2018-04-13T08:02:06.376Z,13.33
2018-04-13T08:03:06.371Z,13.32
2018-04-13T08:04:06.332Z,13.44
2018-04-13T08:05:06.387Z,13.46
2018-04-13T08:06:06.285Z,13.44
2018-04-13T08:07:06.523Z,13.52
2018-04-13T08:08:06.238Z,13.55
2018-04-13T08:09:06.315Z,13.65
2018-04-13T08:10:06.197Z,13.63
2018-04-13T08:11:06.397Z,13.76
2018-04-13T08:12:06.152Z,13.79
2018-04-13T08:13:06.239Z,13.79
2018-04-13T08:14:06.103Z,13.83
2018-04-13T08:15:06.328Z,13.89
2018-04-13T08:16:06.077Z,13.99
2018-04-13T08:17:06.065Z,14.02
2018-04-13T08:18:06.016Z,14.13
2018-04-13T08:19:06.076Z,14.09
2018-04-13T08:21:45.638Z,14.16
2018-04-13T08:22:37.564Z,14.28
2018-04-13T08:24:31.023Z,14.25
2018-04-13T08:25:30.927Z,14.28
2018-04-13T08:27:23.821Z,14.35
2018-04-13T08:28:23.841Z,14.32
2018-04-13T08:30:16.752Z,14.32
2018-04-13T08:31:16.633Z,14.34
2018-04-13T08:33:09.583Z,14.34
2018-04-13T08:34:09.486Z,14.38
2018-04-13T08:36:02.439Z,14.42
2018-04-13T08:37:02.337Z,14.37
2018-04-13T08:38:55.319Z,14.35
2018-04-13T08:39:55.194Z,14.49
2018-04-13T08:41:48.144Z,14.42
2018-04-13T08:42:48.049Z,14.60
2018-04-13T08:44:40.991Z,14.60
2018-04-13T08:45:40.897Z,14.61
2018-04-13T08:47:33.845Z,14.61
2018-04-13T08:48:33.807Z,14.61
2018-04-13T08:50:26.695Z,14.65
2018-04-13T08:51:26.602Z,14.74
2018-04-13T08:53:19.548Z,14.78
2018-04-13T08:54:19.457Z,14.83
2018-04-13T08:56:12.401Z,14.81
2018-04-13T08:57:12.309Z,14.83
2018-04-13T08:59:05.259Z,14.84
2018-04-13T09:00:05.160Z,14.84
2018-04-13T09:01:58.107Z,14.90
2018-04-13T09:02:58.014Z,14.84
2018-04-13T09:04:50.960Z,14.91
2018-04-13T09:05:50.870Z,14.98
2018-04-13T09:07:43.812Z,14.98
2018-04-13T09:08:43.738Z,14.93
2018-04-13T09:10:36.667Z,14.98
2018-04-13T09:11:36.574Z,14.93
2018-04-13T09:13:29.519Z,14.93
2018-04-13T09:14:29.429Z,14.95
2018-04-13T09:16:22.373Z,15.02
2018-04-13T09:17:22.279Z,14.94
2018-04-13T09:19:15.227Z,15.11
2018-04-13T09:20:15.132Z,15.06
2018-04-13T09:22:08.078Z,15.05
2018-04-13T09:23:07.988Z,15.08
2018-04-13T09:25:00.907Z,15.06
2018-04-13T09:26:00.839Z,15.12
2018-04-13T09:27:53.806Z,15.17
2018-04-13T09:28:53.692Z,15.23
2018-04-13T09:30:46.655Z,15.21
2018-04-13T09:31:46.548Z,15.26
2018-04-13T09:33:39.490Z,15.28
2018-04-13T09:34:39.413Z,15.35
2018-04-13T09:36:32.340Z,15.30
2018-04-13T09:37:32.282Z,15.41
2018-04-13T09:39:25.193Z,15.52
2018-04-13T09:40:25.106Z,15.56
2018-04-13T09:42:18.045Z,15.66
2018-04-13T09:43:17.958Z,15.63
2018-04-13T09:45:10.903Z,15.76
2018-04-13T09:46:10.822Z,15.92
2018-04-13T09:48:03.756Z,15.85
2018-04-13T09:49:03.664Z,15.99
2018-04-13T09:50:56.554Z,15.99
2018-04-13T09:51:56.516Z,16.06
2018-04-13T09:53:49.461Z,16.26
2018-04-13T09:54:49.369Z,16.35
2018-04-13T09:56:42.312Z,16.26
2018-04-13T09:57:42.226Z,16.30
2018-04-13T09:59:35.117Z,16.34
2018-04-13T10:00:35.077Z,16.35
2018-04-13T10:02:28.121Z,16.40
2018-04-13T10:03:28.042Z,16.38
2018-04-13T10:05:20.979Z,16.38
2018-04-13T10:06:20.891Z,16.26
2018-04-13T10:08:13.827Z,16.34
2018-04-13T10:09:13.736Z,16.20
2018-04-13T10:11:06.688Z,16.12
2018-04-13T10:12:06.590Z,16.14
2018-04-13T10:13:59.475Z,16.26
2018-04-13T10:14:59.517Z,16.25
2018-04-13T10:16:52.390Z,16.26
2018-04-13T10:17:52.301Z,16.35
2018-04-13T10:19:45.241Z,16.26
2018-04-13T10:20:45.157Z,16.09
2018-04-13T10:22:38.097Z,16.07
2018-04-13T10:23:38.017Z,16.14
2018-04-13T10:25:30.949Z,16.31
2018-04-13T10:26:30.858Z,16.26
2018-04-13T10:28:23.800Z,16.40
2018-04-13T10:29:23.709Z,16.41
2018-04-13T10:31:16.654Z,16.41
2018-04-13T10:32:16.564Z,16.52
2018-04-13T10:34:09.503Z,16.50
2018-04-13T10:35:09.415Z,16.55
2018-04-13T10:37:02.358Z,16.50
2018-04-13T10:38:02.270Z,16.55
2018-04-13T10:39:55.210Z,16.35
2018-04-13T10:40:55.121Z,16.49
2018-04-13T10:42:48.070Z,16.56
2018-04-13T10:43:47.977Z,16.59
2018-04-13T10:45:40.922Z,16.48
2018-04-13T10:46:40.818Z,16.37
2018-04-13T10:48:33.768Z,16.52
2018-04-13T10:49:33.678Z,16.35
2018-04-13T10:51:26.624Z,16.42
2018-04-13T10:52:26.535Z,16.41
2018-04-13T10:54:19.414Z,16.38
2018-04-13T10:55:19.386Z,16.40
2018-04-13T10:57:12.331Z,16.33
2018-04-13T10:58:12.237Z,16.35
2018-04-13T11:00:05.186Z,16.34
2018-04-13T11:01:05.091Z,16.35
2018-04-13T11:02:58.040Z,16.44
2018-04-13T11:03:57.944Z,16.40
2018-04-13T11:05:50.833Z,16.38
2018-04-13T11:06:50.797Z,16.35
2018-04-13T11:08:43.720Z,16.40
2018-04-13T11:09:43.678Z,16.40
2018-04-13T11:11:36.553Z,16.40
2018-04-13T11:12:36.513Z,16.34
2018-04-13T11:14:29.415Z,16.37
2018-04-13T11:15:29.386Z,16.45
2018-04-13T11:17:22.318Z,16.42
2018-04-13T11:18:22.220Z,16.42
2018-04-13T11:20:15.079Z,16.41
2018-04-13T11:21:15.047Z,16.37
2018-04-13T11:23:07.943Z,16.33
2018-04-13T11:24:07.883Z,16.35
2018-04-13T11:26:00.743Z,16.44
2018-04-13T11:27:00.751Z,16.55
2018-04-13T11:28:53.622Z,16.50
2018-04-13T11:29:53.601Z,16.53
2018-04-13T11:31:46.580Z,16.55
2018-04-13T11:32:46.486Z,16.49
2018-04-13T11:34:39.359Z,16.42
2018-04-13T11:35:39.321Z,16.52
2018-04-13T11:37:32.270Z,16.48
2018-04-13T11:38:32.152Z,16.48
2018-04-13T11:40:25.068Z,16.58
2018-04-13T11:41:25.039Z,16.55
2018-04-13T11:43:17.976Z,16.60
2018-04-13T11:44:17.889Z,16.71
2018-04-13T11:46:10.825Z,16.65
2018-04-13T11:47:10.743Z,16.81
2018-04-13T11:49:03.678Z,16.83
2018-04-13T11:50:03.574Z,16.77
2018-04-13T11:51:56.549Z,16.90
2018-04-13T11:52:56.408Z,16.92
2018-04-13T11:54:49.378Z,16.90
2018-04-13T11:55:49.247Z,16.88
2018-04-13T11:57:42.185Z,16.89
2018-04-13T11:58:42.145Z,16.83
2018-04-13T12:00:35.078Z,16.85
2018-04-13T12:01:34.995Z,16.86
2018-04-13T12:03:27.935Z,16.89
2018-04-13T12:04:27.844Z,16.86
2018-04-13T12:06:20.783Z,16.78
2018-04-13T12:07:20.694Z,16.77
2018-04-13T12:09:13.633Z,16.74
2018-04-13T12:10:13.547Z,16.74
2018-04-13T12:12:06.486Z,16.70
2018-04-13T12:13:06.396Z,16.68
2018-04-13T12:14:59.719Z,16.65
2018-04-13T12:15:59.249Z,16.75
2018-04-13T12:17:52.213Z,16.78
2018-04-13T12:18:52.120Z,16.78
2018-04-13T12:20:45.068Z,16.81
2018-04-13T12:21:44.974Z,16.88
2018-04-13T12:23:37.917Z,16.93
2018-04-13T12:24:37.826Z,16.90
2018-04-13T12:26:30.772Z,17.00
2018-04-13T12:27:30.753Z,17.11
2018-04-13T12:29:23.626Z,17.13
2018-04-13T12:30:23.534Z,17.23
2018-04-13T12:32:16.478Z,17.18
2018-04-13T12:33:16.387Z,17.10
2018-04-13T12:35:09.333Z,17.35
2018-04-13T12:36:09.242Z,17.44
2018-04-13T12:38:02.188Z,17.70
2018-04-13T12:39:02.092Z,17.76
2018-04-13T12:40:55.041Z,17.62
2018-04-13T12:41:54.958Z,17.79
2018-04-13T12:43:47.891Z,17.85
2018-04-13T12:44:47.799Z,17.82
2018-04-13T12:46:40.745Z,17.82
2018-04-13T12:47:40.650Z,17.82
2018-04-13T12:49:33.594Z,17.79
2018-04-13T12:50:33.506Z,17.85
2018-04-13T12:52:26.446Z,17.70
2018-04-13T12:53:26.364Z,17.70
2018-04-13T12:55:19.380Z,17.59
2018-04-13T12:56:19.246Z,17.53
2018-04-13T12:58:12.154Z,17.55
2018-04-13T12:59:12.066Z,17.62
2018-04-13T13:01:04.951Z,17.66
2018-04-13T13:02:04.917Z,17.67
2018-04-13T13:03:57.865Z,17.54
2018-04-13T13:04:57.774Z,17.47
2018-04-13T13:06:50.711Z,17.63
2018-04-13T13:07:50.635Z,17.66
2018-04-13T13:09:43.673Z,17.71
2018-04-13T13:10:43.479Z,17.71
2018-04-13T13:12:36.416Z,17.82
2018-04-13T13:13:36.331Z,17.71
2018-04-13T13:15:29.217Z,17.64
2018-04-13T13:16:29.254Z,17.59
2018-04-13T13:18:22.124Z,17.55
2018-04-13T13:19:22.040Z,17.46
2018-04-13T13:21:14.980Z,17.50
2018-04-13T13:22:14.887Z,17.59
2018-04-13T13:24:07.833Z,17.57
2018-04-13T13:25:07.741Z,17.62
2018-04-13T13:27:00.624Z,17.66
2018-04-13T13:28:00.594Z,17.64
2018-04-13T13:29:53.545Z,17.63
2018-04-13T13:30:53.445Z,17.59
2018-04-13T13:32:46.393Z,17.44
2018-04-13T13:33:46.305Z,17.29
2018-04-13T13:35:39.193Z,17.26
2018-04-13T13:36:39.225Z,17.26
2018-04-13T13:38:32.098Z,17.28
2018-04-13T13:39:32.011Z,17.35
2018-04-13T13:41:24.951Z,17.43
2018-04-13T13:42:24.876Z,17.43
2018-04-13T13:44:17.803Z,17.41
2018-04-13T13:45:17.715Z,17.53
2018-04-13T13:47:10.756Z,17.59
2018-04-13T13:48:10.669Z,17.70
2018-04-13T13:50:03.613Z,17.85
2018-04-13T13:51:03.521Z,17.87
2018-04-13T13:52:56.462Z,17.94
2018-04-13T13:53:56.548Z,17.95
2018-04-13T13:55:49.829Z,17.85
2018-04-13T13:56:49.633Z,17.81
2018-04-13T13:57:49.819Z,17.95
2018-04-13T13:58:49.723Z,17.97
2018-04-13T13:59:49.576Z,18.10
2018-04-13T14:00:49.735Z,18.17
2018-04-13T14:01:49.536Z,18.17
2018-04-13T14:02:49.544Z,18.13
2018-04-13T14:03:49.496Z,18.15
2018-04-13T14:04:49.563Z,18.13
2018-04-13T14:05:49.457Z,18.10
2018-04-13T14:06:49.495Z,18.10
2018-04-13T14:07:49.420Z,18.15
2018-04-13T14:08:49.488Z,18.04
2018-04-13T14:09:49.491Z,17.92
2018-04-13T14:10:49.361Z,17.87
2018-04-13T14:11:49.407Z,17.74
2018-04-13T14:12:49.320Z,17.63
2018-04-13T14:13:49.319Z,17.59
2018-04-13T14:14:49.312Z,17.59
2018-04-13T14:15:49.336Z,17.48
2018-04-13T14:16:49.244Z,17.47
2018-04-13T14:17:49.240Z,17.44
2018-04-13T14:18:49.202Z,17.40
2018-04-13T14:19:49.261Z,17.30
2018-04-13T14:20:49.166Z,17.28
2018-04-13T14:21:50.013Z,17.29
2018-04-13T14:22:49.124Z,17.29
2018-04-13T14:23:49.182Z,17.29
2018-04-13T14:24:49.087Z,17.23
2018-04-13T14:25:49.099Z,17.23
2018-04-13T14:26:49.644Z,17.22
2018-04-13T14:27:49.110Z,17.23
2018-04-13T14:28:49.010Z,17.28
2018-04-13T14:29:49.024Z,17.28
2018-04-13T14:30:48.965Z,17.32
2018-04-13T14:31:49.037Z,17.26
2018-04-13T14:32:48.927Z,17.32
2018-04-13T14:33:49.608Z,17.29
2018-04-13T14:34:48.884Z,17.35
2018-04-13T14:35:48.961Z,17.41
2018-04-13T14:36:48.849Z,17.48
2018-04-13T14:37:48.978Z,17.47
2018-04-13T14:38:48.804Z,17.55
2018-04-13T14:39:48.788Z,17.53
2018-04-13T14:40:48.767Z,17.51
2018-04-13T14:41:48.901Z,17.46
2018-04-13T14:42:48.729Z,17.50
2018-04-13T14:43:48.812Z,17.50
2018-04-13T14:44:48.819Z,17.55
2018-04-13T14:45:48.667Z,17.51